Time;durP1;ratioP1;P1;durP2;ratioP2;P2;SDS_P1;SDS_P2;PMS_P1;PMS_P2;Temp;Humidity;BMP_temperature;BMP_pressure;BME280_temperature;BME280_humidity;BME280_pressure;Samples;Min_cycle;Max_cycle;Signal;HPM_P1;HPM_P2
2021/12/05 00:21:56;;;;;;;;;;;;;;;3.43;59.36;98704.41;4435208;32;19961;-87
2021/12/05 00:24:22;;;;;;;;;;;;;;;3.29;59.35;98709.81;4449250;32;19990;-86
2021/12/05 00:26:52;;;;;;;;;;;;;;;3.41;59.37;98701.03;4449421;32;20031;-87
2021/12/05 00:34:35;;;;;;;;;;;;;;;3.30;59.35;98709.78;4436241;32;20004;-87
2021/12/05 00:55:53;;;;;;;;;;;;;;;3.41;59.37;98703.59;4435737;32;20000;-86
2021/12/05 01:15:42;;;;;;;;;;;;;;;3.27;59.36;98702.12;4435840;32;19986;-87
2021/12/05 01:18:13;;;;;;;;;;;;;;;3.36;59.36;98701.97;4449131;32;20040;-86
2021/12/05 01:20:40;;;;;;;;;;;;;;;3.47;59.37;98699.16;4449108;32;20397;-86
2021/12/05 01:23:22;;;;;;;;;;;;;;;3.71;59.38;98690.09;4449335;32;19950;-86
2021/12/05 01:26:10;;;;;;;;;;;;;;;3.51;59.37;98685.34;4449113;32;20057;-87
2021/12/05 01:39:29;;;;;;;;;;;;;;;3.13;59.35;98698.16;4435118;32;19990;-86
2021/12/05 01:45:01;;;;;;;;;;;;;;;3.43;59.36;98691.53;4437240;32;19968;-87
2021/12/05 02:01:12;;;;;;;;;;;;;;;3.13;59.35;98686.12;4434743;32;19994;-87
2021/12/05 02:09:57;;;;;;;;;;;;;;;3.06;59.34;98667.37;4434646;32;19982;-87
2021/12/05 02:36:53;;;;;;;;;;;;;;;3.20;59.35;98643.16;4434503;32;19982;-87
2021/12/05 02:39:30;;;;;;;;;;;;;;;3.21;59.35;98631.97;4448323;32;20356;-87
2021/12/05 02:41:57;;;;;;;;;;;;;;;3.04;59.34;98643.44;4447995;32;20017;-87
2021/12/05 02:44:24;;;;;;;;;;;;;;;3.27;59.36;98635.25;4448137;32;20062;-87
2021/12/05 02:46:57;;;;;;;;;;;;;;;3.17;59.34;98638.91;4448099;32;20097;-87
2021/12/05 02:49:24;;;;;;;;;;;;;;;3.15;59.35;98627.81;4447949;32;20081;-87
2021/12/05 02:51:57;;;;;;;;;;;;;;;3.15;59.35;98632.09;4448133;32;20069;-88
2021/12/05 02:54:23;;;;;;;;;;;;;;;3.30;59.36;98631.78;4448486;32;19994;-86
2021/12/05 02:56:50;;;;;;;;;;;;;;;3.43;59.36;98630.66;4449227;32;19985;-87
2021/12/05 02:59:24;;;;;;;;;;;;;;;3.36;59.36;98639.38;4448490;32;20004;-87
2021/12/05 03:01:55;;;;;;;;;;;;;;;3.27;59.36;98630.13;4448957;32;19966;-88
2021/12/05 03:04:24;;;;;;;;;;;;;;;3.38;59.36;98637.63;4447888;32;20099;-88
2021/12/05 03:06:51;;;;;;;;;;;;;;;3.29;59.36;98648.94;4447879;32;19986;-88
2021/12/05 03:09:17;;;;;;;;;;;;;;;3.44;59.36;98636.66;4447807;32;20726;-88
2021/12/05 03:11:42;;;;;;;;;;;;;;;3.23;59.35;98631.06;4448385;32;20056;-88
2021/12/05 03:14:07;;;;;;;;;;;;;;;3.48;59.37;98638.28;4448046;32;19982;-88
2021/12/05 03:16:33;;;;;;;;;;;;;;;3.37;59.36;98641.94;4448243;32;20030;-87
2021/12/05 03:18:58;;;;;;;;;;;;;;;3.63;59.38;98635.38;4447675;32;19990;-87
2021/12/05 03:21:23;;;;;;;;;;;;;;;3.55;59.37;98637.25;4447542;32;20006;-88
2021/12/05 03:23:49;;;;;;;;;;;;;;;3.63;59.38;98632.81;4447523;32;20009;-89
2021/12/05 03:26:17;;;;;;;;;;;;;;;3.51;59.37;98633.06;4449303;32;19997;-88
2021/12/05 03:28:43;;;;;;;;;;;;;;;3.40;59.37;98633.31;4449996;32;20421;-89
2021/12/05 03:31:08;;;;;;;;;;;;;;;3.67;59.38;98642.16;4450088;32;20010;-88
2021/12/05 03:33:35;;;;;;;;;;;;;;;3.72;59.38;98652.34;4437514;32;19998;-88
2021/12/05 03:36:00;;;;;;;;;;;;;;;3.89;59.39;98651.09;4450274;32;20530;-88
2021/12/05 03:38:25;;;;;;;;;;;;;;;3.94;59.39;98654.41;4450267;32;19986;-88
2021/12/05 03:40:51;;;;;;;;;;;;;;;3.87;59.39;98645.13;4449781;32;20065;-89
2021/12/05 03:43:16;;;;;;;;;;;;;;;3.73;59.39;98642.00;4449751;32;20001;-89
2021/12/05 03:45:43;;;;;;;;;;;;;;;3.66;59.38;98638.72;4449994;32;19954;-88
2021/12/05 03:48:09;;;;;;;;;;;;;;;3.77;59.39;98637.63;4449977;32;19978;-88
2021/12/05 03:50:34;;;;;;;;;;;;;;;3.66;59.38;98646.44;4450960;32;20020;-89
2021/12/05 03:52:59;;;;;;;;;;;;;;;3.60;59.37;98644.00;4436864;32;20001;-88
2021/12/05 03:55:25;;;;;;;;;;;;;;;3.76;59.38;98635.94;4449540;32;21718;-88
2021/12/05 03:57:50;;;;;;;;;;;;;;;3.79;59.39;98636.75;4449828;32;20029;-89
2021/12/05 04:00:17;;;;;;;;;;;;;;;3.77;59.39;98635.91;4449698;32;19985;-89
2021/12/05 04:02:42;;;;;;;;;;;;;;;3.79;59.39;98643.63;4449739;32;19998;-89
2021/12/05 04:05:07;;;;;;;;;;;;;;;3.83;59.40;98635.78;4449841;32;20338;-88
2021/12/05 04:07:33;;;;;;;;;;;;;;;3.79;59.39;98635.91;4450886;32;20057;-90
2021/12/05 04:09:58;;;;;;;;;;;;;;;3.87;59.39;98637.41;4450248;32;20028;-89
2021/12/05 04:12:24;;;;;;;;;;;;;;;3.83;59.38;98635.78;4452196;32;19974;-89
2021/12/05 04:14:54;;;;;;;;;;;;;;;3.86;59.39;98635.72;4449917;32;20427;-89
2021/12/05 04:17:20;;;;;;;;;;;;;;;3.89;59.39;98634.78;4436368;32;19974;-89
2021/12/05 04:19:45;;;;;;;;;;;;;;;3.81;59.38;98632.41;4449745;32;20028;-89
2021/12/05 04:22:10;;;;;;;;;;;;;;;3.94;59.40;98631.22;4450183;32;20011;-89
2021/12/05 04:24:36;;;;;;;;;;;;;;;3.98;59.40;98632.84;4449806;32;19995;-89
2021/12/05 04:27:01;;;;;;;;;;;;;;;3.81;59.38;98640.12;4449548;32;20009;-88
2021/12/05 04:29:26;;;;;;;;;;;;;;;3.92;59.40;98634.72;4449427;32;20024;-89
2021/12/05 04:31:51;;;;;;;;;;;;;;;4.03;59.40;98637.06;4449910;32;20028;-89
2021/12/05 04:34:17;;;;;;;;;;;;;;;3.94;59.39;98631.22;4450253;32;19989;-88
2021/12/05 04:36:42;;;;;;;;;;;;;;;3.91;59.40;98636.44;4449274;32;19986;-88
2021/12/05 04:39:07;;;;;;;;;;;;;;;3.98;59.39;98647.44;4450455;32;20331;-88
2021/12/05 04:41:32;;;;;;;;;;;;;;;3.89;59.39;98643.38;4449551;32;20013;-89
2021/12/05 04:43:58;;;;;;;;;;;;;;;3.95;59.39;98635.50;4449567;32;19982;-89
2021/12/05 04:46:24;;;;;;;;;;;;;;;3.82;59.38;98633.25;4449570;32;20368;-89
2021/12/05 04:48:51;;;;;;;;;;;;;;;3.80;59.39;98635.00;4449366;32;20024;-88
2021/12/05 04:51:16;;;;;;;;;;;;;;;3.69;59.38;98632.66;4449380;32;20329;-88
2021/12/05 04:53:42;;;;;;;;;;;;;;;3.87;59.39;98626.25;4449510;32;19985;-88
2021/12/05 04:56:08;;;;;;;;;;;;;;;3.77;59.39;98630.75;4449646;32;19986;-89
2021/12/05 04:58:33;;;;;;;;;;;;;;;3.70;59.38;98630.06;4449233;32;20326;-89
2021/12/05 05:00:59;;;;;;;;;;;;;;;3.87;59.39;98631.41;4449231;32;20001;-88
2021/12/05 05:03:25;;;;;;;;;;;;;;;3.85;59.39;98630.59;4449197;32;20001;-88
2021/12/05 05:05:57;;;;;;;;;;;;;;;3.85;59.39;98639.16;4436503;32;20001;-89
2021/12/05 05:08:25;;;;;;;;;;;;;;;3.85;59.39;98625.44;4449115;32;19993;-88
2021/12/05 05:10:51;;;;;;;;;;;;;;;3.78;59.39;98627.28;4449949;32;20052;-87
2021/12/05 05:13:16;;;;;;;;;;;;;;;3.83;59.38;98628.06;4449425;32;20333;-88
2021/12/05 05:15:41;;;;;;;;;;;;;;;3.86;59.39;98635.72;4451798;32;20001;-88
2021/12/05 05:18:09;;;;;;;;;;;;;;;3.86;59.40;98637.44;4449624;32;20346;-89
2021/12/05 05:20:51;;;;;;;;;;;;;;;3.80;59.39;98640.16;4449372;32;19994;-88
2021/12/05 05:52:11;;;;;;;;;;;;;;;4.05;59.41;98633.56;4435556;32;20053;-88
2021/12/05 05:54:36;;;;;;;;;;;;;;;3.99;59.40;98633.69;4450323;32;19982;-89
2021/12/05 05:57:13;;;;;;;;;;;;;;;3.84;59.40;98640.06;4436222;32;20033;-89
2021/12/05 05:59:47;;;;;;;;;;;;;;;3.93;59.39;98641.56;4449540;32;19990;-89
2021/12/05 06:05:19;;;;;;;;;;;;;;;4.03;59.40;98652.50;4425003;32;20043;-89
2021/12/05 06:07:46;;;;;;;;;;;;;;;4.06;59.40;98661.00;4448902;32;20990;-89
2021/12/05 06:10:11;;;;;;;;;;;;;;;4.15;59.41;98658.19;4449053;32;20346;-89
2021/12/05 06:12:37;;;;;;;;;;;;;;;4.16;59.41;98662.47;4448574;32;20025;-89
2021/12/05 06:15:03;;;;;;;;;;;;;;;4.07;59.40;98656.69;4448949;32;19997;-89
2021/12/05 06:17:28;;;;;;;;;;;;;;;4.09;59.40;98658.34;4448535;32;19998;-89
2021/12/05 06:19:54;;;;;;;;;;;;;;;3.98;59.40;98653.44;4448338;32;19996;-89
2021/12/05 06:22:19;;;;;;;;;;;;;;;4.04;59.40;98669.66;4448538;32;20042;-89
2021/12/05 06:24:45;;;;;;;;;;;;;;;3.98;59.39;98673.19;4448637;32;19982;-89
2021/12/05 06:27:10;;;;;;;;;;;;;;;4.05;59.40;98668.78;4448543;32;20252;-88
2021/12/05 06:29:41;;;;;;;;;;;;;;;3.96;59.39;98672.38;4448563;32;20005;-89
2021/12/05 06:37:45;;;;;;;;;;;;;;;4.08;59.41;98676.41;4433765;32;20349;-89
2021/12/05 06:40:34;;;;;;;;;;;;;;;4.01;59.40;98666.25;4448416;32;20044;-88
2021/12/05 06:43:17;;;;;;;;;;;;;;;4.15;59.41;98662.50;4448696;32;19989;-89
2021/12/05 06:46:03;;;;;;;;;;;;;;;4.17;59.41;98661.59;4448491;32;19986;-88
2021/12/05 06:48:29;;;;;;;;;;;;;;;4.17;59.41;98663.31;4448464;32;19994;-89
2021/12/05 06:50:56;;;;;;;;;;;;;;;4.26;59.41;98668.28;4450571;32;20013;-91
2021/12/05 06:53:25;;;;;;;;;;;;;;;4.38;59.42;98667.13;4449945;32;19997;-88
2021/12/05 06:55:50;;;;;;;;;;;;;;;4.41;59.42;98683.34;4449662;32;19968;-88
2021/12/05 06:58:15;;;;;;;;;;;;;;;4.53;59.43;98677.06;4448560;32;20022;-88
2021/12/05 07:00:40;;;;;;;;;;;;;;;4.56;59.43;98682.97;4450004;32;20013;-88
2021/12/05 07:03:08;;;;;;;;;;;;;;;4.54;59.43;98687.31;4450609;32;20041;-88
2021/12/05 07:08:08;;;;;;;;;;;;;;;4.39;59.42;98698.00;4436734;32;19981;-88
2021/12/05 07:10:42;;;;;;;;;;;;;;;4.53;59.43;98692.50;4450538;32;20083;-88
2021/12/05 07:15:59;;;;;;;;;;;;;;;4.51;59.43;98692.56;4435561;32;19993;-88
2021/12/05 07:26:17;;;;;;;;;;;;;;;4.76;59.44;98687.63;4436306;32;19993;-88
2021/12/05 07:42:25;;;;;;;;;;;;;;;5.06;59.46;98695.44;4435346;32;20407;-88
2021/12/05 07:45:05;;;;;;;;;;;;;;;5.13;59.46;98713.28;4450668;32;19997;-89
2021/12/05 07:47:32;;;;;;;;;;;;;;;5.05;59.46;98715.25;4449862;32;19973;-89
2021/12/05 07:50:01;;;;;;;;;;;;;;;5.40;59.48;98711.69;4450206;32;19965;-89
2021/12/05 07:52:29;;;;;;;;;;;;;;;5.42;59.48;98703.91;4449981;32;20017;-89
2021/12/05 07:55:03;;;;;;;;;;;;;;;5.47;59.48;98708.06;4450281;32;20053;-88
2021/12/05 07:57:36;;;;;;;;;;;;;;;5.49;59.48;98708.03;4449777;32;20342;-88
2021/12/05 08:00:18;;;;;;;;;;;;;;;5.44;59.48;98715.91;4449506;32;19988;-88
2021/12/05 08:16:29;;;;;;;;;;;;;;;5.68;59.50;98709.19;4434513;32;20020;-88
2021/12/05 08:18:54;;;;;;;;;;;;;;;5.76;59.50;98712.41;4449471;32;20009;-88
2021/12/05 08:21:20;;;;;;;;;;;;;;;5.81;59.50;98715.69;4436705;32;20016;-89
2021/12/05 08:23:46;;;;;;;;;;;;;;;5.74;59.49;98714.19;4449618;32;20009;-89
2021/12/05 08:26:18;;;;;;;;;;;;;;;5.84;59.51;98707.84;4436735;32;19966;-88
2021/12/05 08:45:16;;;;;;;;;;;;;;;5.57;59.49;98712.97;4436306;32;19974;-89
2021/12/05 10:03:10;;;;;;;;;;;;;;;6.34;59.52;98676.22;4434992;32;20522;-88
2021/12/05 10:08:39;;;;;;;;;;;;;;;6.51;59.54;98667.91;4434211;32;20696;-87
2021/12/05 10:11:16;;;;;;;;;;;;;;;6.45;59.54;98659.47;4448925;32;19997;-89
2021/12/05 10:16:21;;;;;;;;;;;;;;;6.72;59.55;98662.03;4436130;32;19982;-89
2021/12/05 10:38:06;;;;;;;;;;;;;;;6.59;59.55;98660.75;4439706;32;20031;-88
2021/12/05 10:40:36;;;;;;;;;;;;;;;6.46;59.54;98661.16;4450560;32;20568;-88
2021/12/05 10:43:01;;;;;;;;;;;;;;;6.56;59.54;98655.69;4450333;32;20606;-88
2021/12/05 10:45:27;;;;;;;;;;;;;;;6.70;59.55;98649.16;4450133;32;19989;-88
2021/12/05 10:47:52;;;;;;;;;;;;;;;6.82;59.56;98644.44;4437359;32;20005;-88
2021/12/05 10:50:37;;;;;;;;;;;;;;;6.44;59.54;98647.44;4450469;32;20045;-88
2021/12/05 10:53:19;;;;;;;;;;;;;;;6.45;59.53;98643.97;4436283;32;20005;-87
2021/12/05 10:55:44;;;;;;;;;;;;;;;6.37;59.53;98638.19;4449715;32;20365;-88
2021/12/05 10:58:09;;;;;;;;;;;;;;;6.50;59.53;98648.12;4450513;32;20034;-88
2021/12/05 11:00:34;;;;;;;;;;;;;;;6.39;59.53;98648.50;4450095;32;20349;-88
2021/12/05 11:03:15;;;;;;;;;;;;;;;6.30;59.53;98641.03;4449935;32;20024;-87
2021/12/05 11:05:41;;;;;;;;;;;;;;;6.33;59.53;98639.19;4450085;32;20043;-88
2021/12/05 11:08:26;;;;;;;;;;;;;;;6.46;59.54;98629.31;4450087;32;19982;-88
2021/12/05 11:10:51;;;;;;;;;;;;;;;6.40;59.53;98638.09;4449885;32;19977;-87
2021/12/05 11:13:29;;;;;;;;;;;;;;;6.51;59.54;98632.56;4449818;32;20337;-88
2021/12/05 11:15:54;;;;;;;;;;;;;;;6.63;59.54;98631.31;4437328;32;20670;-88
2021/12/05 11:18:39;;;;;;;;;;;;;;;6.67;59.55;98628.56;4449991;32;20000;-87
2021/12/05 11:21:47;;;;;;;;;;;;;;;6.45;59.54;98630.19;4449762;32;19969;-88
2021/12/05 11:24:13;;;;;;;;;;;;;;;6.33;59.53;98635.75;4405195;32;20446;-88
2021/12/05 11:26:39;;;;;;;;;;;;;;;6.46;59.54;98642.22;4405619;32;20024;-87
2021/12/05 11:29:04;;;;;;;;;;;;;;;6.64;59.54;98641.63;4400380;32;19982;-88
2021/12/05 11:31:30;;;;;;;;;;;;;;;6.66;59.55;98641.56;4437063;32;19974;-88
2021/12/05 11:33:56;;;;;;;;;;;;;;;6.59;59.55;98629.72;4449755;32;20009;-87
2021/12/05 11:36:33;;;;;;;;;;;;;;;6.62;59.54;98621.84;4450698;32;20008;-87
2021/12/05 11:38:58;;;;;;;;;;;;;;;6.73;59.56;98628.34;4449784;32;20000;-87
2021/12/05 11:41:25;;;;;;;;;;;;;;;6.70;59.54;98627.63;4449837;32;20000;-88
2021/12/05 11:43:52;;;;;;;;;;;;;;;6.72;59.56;98629.25;4449661;32;19994;-86
2021/12/05 11:46:20;;;;;;;;;;;;;;;6.67;59.55;98632.91;4449871;32;20005;-87
2021/12/05 11:48:46;;;;;;;;;;;;;;;6.56;59.53;98625.50;4437166;32;20058;-88
2021/12/05 11:51:31;;;;;;;;;;;;;;;6.42;59.54;98638.91;4436716;32;19997;-88
2021/12/05 11:53:56;;;;;;;;;;;;;;;6.38;59.53;98631.28;4449859;32;19993;-88
2021/12/05 11:56:30;;;;;;;;;;;;;;;6.37;59.53;98633.00;4437583;32;20049;-87
2021/12/05 11:59:01;;;;;;;;;;;;;;;6.41;59.53;98629.47;4436751;32;19986;-87
2021/12/05 12:01:31;;;;;;;;;;;;;;;6.24;59.52;98628.31;4436779;32;20666;-88
2021/12/05 12:03:57;;;;;;;;;;;;;;;6.45;59.54;98633.62;4449629;32;20012;-88
2021/12/05 12:06:22;;;;;;;;;;;;;;;6.40;59.53;98622.59;4449483;32;19990;-87
2021/12/05 12:08:49;;;;;;;;;;;;;;;6.39;59.53;98613.16;4449743;32;20333;-88
2021/12/05 12:11:14;;;;;;;;;;;;;;;6.52;59.54;98617.91;4449711;32;19974;-89
2021/12/05 12:13:41;;;;;;;;;;;;;;;6.53;59.54;98629.94;4449278;32;20025;-87
2021/12/05 12:16:08;;;;;;;;;;;;;;;6.41;59.53;98639.78;4449794;32;20687;-89
2021/12/05 12:18:34;;;;;;;;;;;;;;;6.32;59.53;98640.06;4449482;32;20012;-89
2021/12/05 12:21:00;;;;;;;;;;;;;;;6.42;59.54;98638.91;4449377;32;19974;-89
2021/12/05 12:23:26;;;;;;;;;;;;;;;6.22;59.53;98633.53;4449392;32;20011;-89
2021/12/05 12:25:52;;;;;;;;;;;;;;;5.89;59.50;98635.38;4449417;32;20005;-88
2021/12/05 12:28:17;;;;;;;;;;;;;;;5.81;59.50;98639.94;4449559;32;20027;-88
2021/12/05 12:30:44;;;;;;;;;;;;;;;5.80;59.50;98651.19;4449556;32;20008;-88
2021/12/05 12:33:10;;;;;;;;;;;;;;;5.60;59.48;98656.94;4450003;32;20041;-88
2021/12/05 12:35:36;;;;;;;;;;;;;;;5.58;59.49;98639.78;4437424;32;20009;-88
2021/12/05 12:38:02;;;;;;;;;;;;;;;5.58;59.49;98627.72;4449858;32;20027;-88
2021/12/05 12:40:33;;;;;;;;;;;;;;;5.33;59.48;98621.59;4449406;32;20092;-88
2021/12/05 12:42:59;;;;;;;;;;;;;;;5.41;59.47;98627.38;4450125;32;19973;-88
2021/12/05 12:45:24;;;;;;;;;;;;;;;5.37;59.47;98626.63;4449843;32;19993;-90
2021/12/05 12:47:56;;;;;;;;;;;;;;;5.10;59.46;98617.09;4449622;32;20029;-89
2021/12/05 12:50:35;;;;;;;;;;;;;;;5.31;59.47;98631.13;4449555;32;19992;-88
2021/12/05 12:53:00;;;;;;;;;;;;;;;5.33;59.48;98637.94;4449377;32;20091;-89
2021/12/05 12:55:30;;;;;;;;;;;;;;;5.57;59.49;98644.13;4437192;32;19993;-88
2021/12/05 12:57:55;;;;;;;;;;;;;;;5.67;59.49;98629.19;4423666;32;887729;-88
2021/12/05 13:00:22;;;;;;;;;;;;;;;5.68;59.50;98626.59;4423936;32;20287;-88
2021/12/05 13:05:34;;;;;;;;;;;;;;;5.61;59.49;98617.31;4437058;32;20027;-88
2021/12/05 13:11:04;;;;;;;;;;;;;;;5.65;59.49;98607.72;4434529;32;20547;-88
2021/12/05 13:13:31;;;;;;;;;;;;;;;5.68;59.50;98605.94;4449143;32;20596;-88
2021/12/05 13:16:01;;;;;;;;;;;;;;;5.68;59.49;98605.06;4449668;32;20674;-89
2021/12/05 13:18:30;;;;;;;;;;;;;;;5.71;59.49;98599.81;4453146;32;20004;-88
2021/12/05 13:20:57;;;;;;;;;;;;;;;5.69;59.50;98594.72;4451211;32;19999;-88
2021/12/05 13:23:50;;;;;;;;;;;;;;;5.68;59.50;98593.03;4449631;32;19990;-88
2021/12/05 13:26:26;;;;;;;;;;;;;;;5.62;59.49;98587.19;4446926;32;20009;-88
2021/12/05 13:28:57;;;;;;;;;;;;;;;5.50;59.48;98578.94;4450454;32;19989;-87
2021/12/05 13:31:30;;;;;;;;;;;;;;;5.51;59.48;98579.78;4449433;32;20012;-88
2021/12/05 13:34:13;;;;;;;;;;;;;;;5.46;59.48;98573.91;4436127;32;20428;-88
2021/12/05 13:36:39;;;;;;;;;;;;;;;5.46;59.48;98563.59;4436649;32;19976;-88
2021/12/05 13:39:24;;;;;;;;;;;;;;;5.52;59.48;98551.34;4449603;32;20479;-88
2021/12/05 13:42:01;;;;;;;;;;;;;;;5.66;59.49;98545.72;4449964;32;19988;-88
2021/12/05 13:44:47;;;;;;;;;;;;;;;5.72;59.50;98544.72;4437289;32;20002;-88
2021/12/05 13:47:15;;;;;;;;;;;;;;;5.97;59.51;98542.22;4450856;32;19990;-88
2021/12/05 13:49:41;;;;;;;;;;;;;;;6.14;59.52;98542.47;4450584;32;19985;-88
2021/12/05 13:52:26;;;;;;;;;;;;;;;6.14;59.52;98555.41;4448676;32;19978;-88
2021/12/05 13:54:51;;;;;;;;;;;;;;;6.13;59.51;98564.06;4435636;32;19981;-88
2021/12/05 13:57:16;;;;;;;;;;;;;;;6.15;59.52;98568.31;4448699;32;20009;-88
2021/12/05 13:59:41;;;;;;;;;;;;;;;6.06;59.52;98575.50;4450069;32;20005;-89
2021/12/05 14:02:07;;;;;;;;;;;;;;;5.93;59.50;98579.38;4450109;32;20029;-88
2021/12/05 14:04:34;;;;;;;;;;;;;;;5.67;59.49;98580.12;4450420;32;20025;-89
2021/12/05 14:07:04;;;;;;;;;;;;;;;5.36;59.47;98588.81;4450325;32;20021;-89
2021/12/05 14:09:39;;;;;;;;;;;;;;;5.38;59.47;98592.19;4439525;32;20726;-88
2021/12/05 14:12:13;;;;;;;;;;;;;;;4.73;59.44;98602.66;4436903;32;20458;-88
2021/12/05 14:14:51;;;;;;;;;;;;;;;4.70;59.44;98609.59;4450338;32;20569;-88
2021/12/05 14:17:20;;;;;;;;;;;;;;;4.79;59.45;98594.75;4450131;32;19990;-88
2021/12/05 14:19:47;;;;;;;;;;;;;;;4.76;59.44;98601.72;4449964;32;20008;-88
2021/12/05 14:22:12;;;;;;;;;;;;;;;4.56;59.43;98602.25;4449719;32;19998;-88
2021/12/05 14:24:40;;;;;;;;;;;;;;;4.66;59.44;98598.53;4449651;32;20274;-88
2021/12/05 14:27:06;;;;;;;;;;;;;;;4.74;59.44;98595.75;4450469;32;19993;-88
2021/12/05 14:29:33;;;;;;;;;;;;;;;4.80;59.45;98598.16;4450367;32;19964;-87
2021/12/05 14:32:21;;;;;;;;;;;;;;;4.80;59.45;98611.06;4450335;32;19982;-88
2021/12/05 14:34:47;;;;;;;;;;;;;;;4.47;59.42;98613.59;4441246;32;19990;-88
2021/12/05 14:37:13;;;;;;;;;;;;;;;4.73;59.44;98614.66;4449021;32;20045;-88
2021/12/05 14:39:39;;;;;;;;;;;;;;;4.74;59.45;98619.81;4436043;32;20073;-87
2021/12/05 14:42:06;;;;;;;;;;;;;;;4.86;59.44;98619.47;4449067;32;19977;-88
2021/12/05 14:44:31;;;;;;;;;;;;;;;4.83;59.44;98610.97;4435773;32;19997;-88
2021/12/05 14:46:59;;;;;;;;;;;;;;;4.81;59.45;98617.91;4449461;32;19981;-88
2021/12/05 14:49:25;;;;;;;;;;;;;;;4.84;59.44;98622.97;4437096;32;20670;-88
2021/12/05 14:51:51;;;;;;;;;;;;;;;4.77;59.44;98621.44;4450541;32;19993;-89
2021/12/05 14:54:16;;;;;;;;;;;;;;;4.70;59.44;98612.16;4448522;32;20285;-88
2021/12/05 14:56:42;;;;;;;;;;;;;;;4.65;59.44;98616.59;4448408;32;20013;-88
2021/12/05 14:59:08;;;;;;;;;;;;;;;4.75;59.44;98615.50;4448398;32;20057;-91
2021/12/05 15:01:33;;;;;;;;;;;;;;;4.63;59.43;98611.50;4448430;32;19974;-91
2021/12/05 15:04:01;;;;;;;;;;;;;;;4.67;59.44;98615.69;4448523;32;20345;-88
2021/12/05 15:06:30;;;;;;;;;;;;;;;4.73;59.44;98614.66;4448196;32;20029;-88
2021/12/05 15:08:55;;;;;;;;;;;;;;;4.67;59.44;98617.41;4450075;32;20529;-89
2021/12/05 15:11:20;;;;;;;;;;;;;;;4.72;59.43;98612.97;4458649;32;19970;-88
2021/12/05 15:13:46;;;;;;;;;;;;;;;4.73;59.44;98618.12;4448932;32;19982;-88
2021/12/05 15:16:11;;;;;;;;;;;;;;;4.65;59.44;98621.75;4460769;32;19976;-88
2021/12/05 15:18:39;;;;;;;;;;;;;;;4.60;59.43;98615.00;4451808;32;20322;-87
2021/12/05 15:21:05;;;;;;;;;;;;;;;4.59;59.43;98613.31;4451374;32;20234;-88
2021/12/05 15:23:32;;;;;;;;;;;;;;;4.63;59.43;98614.91;4452608;32;20065;-88
2021/12/05 15:26:00;;;;;;;;;;;;;;;4.52;59.43;98611.78;4450678;32;19993;-89
2021/12/05 15:28:26;;;;;;;;;;;;;;;4.47;59.42;98613.59;4452305;32;20362;-89
2021/12/05 15:30:51;;;;;;;;;;;;;;;4.48;59.42;98610.16;4451334;32;20015;-88
2021/12/05 15:33:17;;;;;;;;;;;;;;;4.45;59.42;98605.06;4451148;32;20468;-88
2021/12/05 15:35:43;;;;;;;;;;;;;;;4.49;59.42;98598.94;4451522;32;20052;-88
2021/12/05 15:38:14;;;;;;;;;;;;;;;4.53;59.43;98594.59;4451400;32;19995;-89
2021/12/05 15:40:40;;;;;;;;;;;;;;;4.62;59.43;98608.06;4453316;32;19974;-87
2021/12/05 15:43:07;;;;;;;;;;;;;;;4.63;59.43;98598.59;4441597;32;20024;-89
2021/12/05 15:45:32;;;;;;;;;;;;;;;4.45;59.42;98596.50;4440039;32;19990;-89
2021/12/05 15:47:57;;;;;;;;;;;;;;;4.30;59.42;98602.91;4450474;32;19996;-88
2021/12/05 15:50:27;;;;;;;;;;;;;;;4.32;59.41;98601.13;4450664;32;19994;-88
2021/12/05 15:52:53;;;;;;;;;;;;;;;4.19;59.40;98603.16;4450817;32;20013;-88
2021/12/05 15:55:20;;;;;;;;;;;;;;;4.02;59.40;98597.56;4450829;32;20006;-89
2021/12/05 15:57:47;;;;;;;;;;;;;;;4.32;59.41;98603.72;4450401;32;19982;-88
2021/12/05 16:00:13;;;;;;;;;;;;;;;4.14;59.41;98615.31;4450220;32;20342;-88
2021/12/05 16:02:41;;;;;;;;;;;;;;;4.23;59.41;98609.91;4450922;32;20053;-87
2021/12/05 16:05:16;;;;;;;;;;;;;;;4.39;59.42;98615.53;4454327;32;19997;-89
2021/12/05 16:07:42;;;;;;;;;;;;;;;4.37;59.42;98617.31;4450686;32;19954;-89
2021/12/05 16:10:25;;;;;;;;;;;;;;;4.55;59.43;98634.06;4452720;32;20016;-88
2021/12/05 16:12:51;;;;;;;;;;;;;;;4.62;59.43;98630.41;4449238;32;20004;-88
2021/12/05 16:15:17;;;;;;;;;;;;;;;4.64;59.44;98626.06;4449724;32;19997;-89
2021/12/05 16:17:50;;;;;;;;;;;;;;;4.43;59.43;98609.44;4449646;32;19977;-88
2021/12/05 16:20:22;;;;;;;;;;;;;;;4.46;59.42;98627.38;4449968;32;20001;-88
2021/12/05 16:22:58;;;;;;;;;;;;;;;4.47;59.42;98626.50;4449626;32;20016;-89
2021/12/05 16:25:23;;;;;;;;;;;;;;;4.36;59.42;98633.66;4450553;32;20006;-89
2021/12/05 16:27:49;;;;;;;;;;;;;;;4.48;59.42;98632.50;4449403;32;20315;-89
2021/12/05 16:30:21;;;;;;;;;;;;;;;4.50;59.42;98643.63;4450042;32;20023;-89
2021/12/05 16:32:46;;;;;;;;;;;;;;;4.59;59.43;98648.53;4448932;32;19993;-89
2021/12/05 16:35:22;;;;;;;;;;;;;;;4.74;59.44;98667.94;4450013;32;20032;-89
2021/12/05 16:37:48;;;;;;;;;;;;;;;4.65;59.44;98679.31;4450185;32;19993;-88
2021/12/05 16:40:13;;;;;;;;;;;;;;;4.75;59.44;98672.22;4449877;32;20273;-89
2021/12/05 16:42:38;;;;;;;;;;;;;;;4.81;59.45;98657.41;4449825;32;20302;-89
2021/12/05 16:45:04;;;;;;;;;;;;;;;4.87;59.45;98641.78;4449824;32;20029;-89
2021/12/05 16:47:30;;;;;;;;;;;;;;;4.76;59.43;98643.81;4436743;32;20287;-89
2021/12/05 16:49:56;;;;;;;;;;;;;;;4.78;59.44;98654.94;4449435;32;19973;-88
2021/12/05 16:52:22;;;;;;;;;;;;;;;4.70;59.44;98650.84;4449320;32;20047;-88
2021/12/05 16:54:48;;;;;;;;;;;;;;;4.78;59.44;98644.63;4449178;32;19986;-88
2021/12/05 16:57:39;;;;;;;;;;;;;;;4.78;59.44;98651.50;4449876;32;20330;-88
2021/12/05 17:00:12;;;;;;;;;;;;;;;4.92;59.45;98650.22;4449417;32;19985;-88
2021/12/05 17:02:42;;;;;;;;;;;;;;;4.87;59.46;98659.81;4449748;32;20010;-88
2021/12/05 17:05:15;;;;;;;;;;;;;;;4.87;59.45;98661.56;4449908;32;20012;-88
2021/12/05 17:07:56;;;;;;;;;;;;;;;5.07;59.46;98656.72;4437801;32;19972;-88
2021/12/05 17:10:25;;;;;;;;;;;;;;;5.07;59.46;98655.88;4449101;32;20008;-88
2021/12/05 17:13:13;;;;;;;;;;;;;;;5.23;59.46;98673.47;4436610;32;19989;-88
2021/12/05 17:15:46;;;;;;;;;;;;;;;5.09;59.46;98679.88;4449458;32;20005;-88
2021/12/05 17:18:25;;;;;;;;;;;;;;;5.13;59.46;98679.75;4449712;32;19977;-88
2021/12/05 17:20:52;;;;;;;;;;;;;;;5.32;59.48;98684.41;4449999;32;19993;-89
2021/12/05 17:23:22;;;;;;;;;;;;;;;5.16;59.46;98681.41;4449825;32;20017;-89
2021/12/05 17:25:48;;;;;;;;;;;;;;;5.21;59.46;98689.87;4437276;32;19986;-88
2021/12/05 17:28:33;;;;;;;;;;;;;;;5.29;59.47;98684.50;4450012;32;20042;-89
2021/12/05 17:31:01;;;;;;;;;;;;;;;5.31;59.47;98685.31;4449706;32;19962;-89
2021/12/05 17:33:27;;;;;;;;;;;;;;;5.20;59.47;98683.00;4450199;32;19997;-88
2021/12/05 17:35:53;;;;;;;;;;;;;;;5.34;59.47;98690.37;4451091;32;20023;-88
2021/12/05 17:38:29;;;;;;;;;;;;;;;5.31;59.48;98681.00;4450524;32;20657;-89
2021/12/05 17:40:54;;;;;;;;;;;;;;;5.25;59.47;98691.50;4437445;32;19978;-89
2021/12/05 17:43:19;;;;;;;;;;;;;;;5.32;59.48;98687.00;4448919;32;19989;-89
2021/12/05 17:45:44;;;;;;;;;;;;;;;5.36;59.47;98686.03;4449404;32;19997;-91
2021/12/05 17:48:10;;;;;;;;;;;;;;;5.15;59.46;98696.03;4449309;32;19993;-88
2021/12/05 17:50:36;;;;;;;;;;;;;;;5.24;59.46;98697.53;4449962;32;20360;-89
2021/12/05 17:53:01;;;;;;;;;;;;;;;5.22;59.46;98694.16;4450509;32;20009;-90
2021/12/05 17:55:31;;;;;;;;;;;;;;;5.15;59.46;98696.03;4449733;32;19993;-91
2021/12/05 17:58:05;;;;;;;;;;;;;;;5.11;59.46;98702.16;4449327;32;20412;-89
2021/12/05 18:02:57;;;;;;;;;;;;;;;5.24;59.46;98689.81;4436479;32;20012;-89
2021/12/05 18:05:26;;;;;;;;;;;;;;;4.98;59.45;98690.50;4436468;32;19986;-89
2021/12/05 18:07:53;;;;;;;;;;;;;;;4.97;59.45;98691.38;4449171;32;19985;-89
2021/12/05 18:10:20;;;;;;;;;;;;;;;5.19;59.47;98689.91;4449126;32;20698;-89
2021/12/05 18:12:46;;;;;;;;;;;;;;;5.38;59.47;98684.25;4449706;32;20365;-89
2021/12/05 18:15:21;;;;;;;;;;;;;;;5.29;59.47;98681.94;4449949;32;20052;-89
2021/12/05 18:17:46;;;;;;;;;;;;;;;5.09;59.46;98677.31;4449878;32;19972;-90
2021/12/05 18:20:13;;;;;;;;;;;;;;;5.16;59.47;98682.25;4450013;32;19978;-89
2021/12/05 18:22:38;;;;;;;;;;;;;;;5.03;59.45;98672.31;4450490;32;20031;-87
2021/12/05 18:25:04;;;;;;;;;;;;;;;5.24;59.46;98669.16;4450190;32;19997;-88
2021/12/05 18:27:30;;;;;;;;;;;;;;;5.39;59.48;98662.72;4449470;32;19974;-90
2021/12/05 18:29:55;;;;;;;;;;;;;;;5.53;59.49;98658.84;4449082;32;20334;-89